Time;durP1;ratioP1;P1;durP2;ratioP2;P2;SDS_P1;SDS_P2;PMS_P1;PMS_P2;Temp;Humidity;BMP_temperature;BMP_pressure;BME280_temperature;BME280_humidity;BME280_pressure;Samples;Min_cycle;Max_cycle;Signal;HPM_P1;HPM_P2
2021/05/16 00:01:27;;;;;;;3.40;2.17;;;;;;;;;;4971467;28;20329;-79
2021/05/16 00:03:53;;;;;;;4.23;2.00;;;;;;;;;;4960312;28;20181;-79
2021/05/16 00:06:19;;;;;;;2.30;1.33;;;;;;;;;;4969828;28;20722;-79
2021/05/16 00:08:47;;;;;;;4.43;1.33;;;;;;;;;;4971197;28;20199;-79
2021/05/16 00:11:13;;;;;;;5.00;1.83;;;;;;;;;;4974752;28;20241;-79
2021/05/16 00:13:40;;;;;;;3.40;1.80;;;;;;;;;;4973870;28;20570;-79
2021/05/16 00:16:06;;;;;;;5.22;1.90;;;;;;;;;;4972120;28;20453;-79
2021/05/16 00:18:32;;;;;;;3.10;1.60;;;;;;;;;;4969757;28;20219;-79
2021/05/16 00:20:58;;;;;;;3.33;1.73;;;;;;;;;;4973406;28;20176;-80
2021/05/16 00:23:24;;;;;;;2.63;1.73;;;;;;;;;;4969307;28;20573;-79
2021/05/16 00:25:50;;;;;;;3.20;1.43;;;;;;;;;;4970798;28;20199;-79
2021/05/16 00:28:16;;;;;;;2.70;1.40;;;;;;;;;;4967084;28;20603;-79
2021/05/16 00:30:42;;;;;;;3.30;1.80;;;;;;;;;;4967312;28;20182;-79
2021/05/16 00:33:08;;;;;;;2.93;1.63;;;;;;;;;;4972550;28;20183;-79
2021/05/16 00:35:34;;;;;;;3.77;1.50;;;;;;;;;;4969799;28;20679;-79
2021/05/16 00:38:04;;;;;;;2.63;1.57;;;;;;;;;;4962438;28;20743;-79
2021/05/16 00:40:31;;;;;;;2.50;1.40;;;;;;;;;;4971267;28;20175;-80
2021/05/16 00:42:57;;;;;;;5.07;2.00;;;;;;;;;;4969721;28;20192;-80
2021/05/16 00:45:27;;;;;;;2.00;1.70;;;;;;;;;;4966027;28;20243;-79
2021/05/16 00:47:55;;;;;;;4.77;1.93;;;;;;;;;;4971275;28;20191;-79
2021/05/16 00:50:23;;;;;;;2.57;1.87;;;;;;;;;;4983779;28;20184;-79
2021/05/16 00:52:49;;;;;;;5.03;2.25;;;;;;;;;;4970644;28;20410;-79
2021/05/16 00:55:16;;;;;;;3.27;1.87;;;;;;;;;;4976493;28;20514;-79
2021/05/16 00:57:42;;;;;;;5.60;1.87;;;;;;;;;;4971113;28;20279;-80
2021/05/16 01:00:10;;;;;;;4.97;1.80;;;;;;;;;;4970042;28;20596;-79
2021/05/16 01:02:36;;;;;;;4.93;2.10;;;;;;;;;;4968926;28;20220;-79
2021/05/16 01:05:02;;;;;;;3.47;1.53;;;;;;;;;;4962799;28;20218;-80
2021/05/16 01:07:28;;;;;;;3.63;2.10;;;;;;;;;;4957901;28;20215;-79
2021/05/16 01:09:55;;;;;;;2.77;1.77;;;;;;;;;;4967593;28;20272;-79
2021/05/16 01:12:28;;;;;;;2.90;1.57;;;;;;;;;;4965356;28;20177;-80
2021/05/16 01:14:55;;;;;;;4.40;1.67;;;;;;;;;;4999593;28;20220;-80
2021/05/16 01:17:21;;;;;;;4.73;1.83;;;;;;;;;;4965941;28;20744;-80
2021/05/16 01:19:47;;;;;;;3.60;1.60;;;;;;;;;;4969170;28;20251;-79
2021/05/16 01:22:13;;;;;;;4.97;1.70;;;;;;;;;;4968994;28;20238;-79
2021/05/16 01:24:43;;;;;;;6.87;2.27;;;;;;;;;;4965989;28;20184;-79
2021/05/16 01:27:13;;;;;;;4.33;1.73;;;;;;;;;;4956374;28;20179;-80
2021/05/16 01:29:39;;;;;;;4.87;2.40;;;;;;;;;;4961942;28;20203;-79
2021/05/16 01:32:10;;;;;;;2.50;1.93;;;;;;;;;;4963058;28;20504;-79
2021/05/16 01:34:37;;;;;;;6.53;2.20;;;;;;;;;;4965649;28;20210;-79
2021/05/16 01:37:03;;;;;;;4.30;2.03;;;;;;;;;;4967036;28;20210;-79
2021/05/16 01:39:29;;;;;;;4.47;1.83;;;;;;;;;;4960615;28;20510;-79
2021/05/16 01:41:55;;;;;;;3.70;2.03;;;;;;;;;;4972523;28;20278;-79
2021/05/16 01:44:23;;;;;;;4.03;2.13;;;;;;;;;;4963048;28;20229;-80
2021/05/16 01:46:49;;;;;;;5.63;2.40;;;;;;;;;;4964004;28;20191;-79
2021/05/16 01:49:15;;;;;;;4.87;2.17;;;;;;;;;;4968879;28;20215;-79
2021/05/16 01:51:41;;;;;;;3.33;1.93;;;;;;;;;;4969605;28;20187;-79
2021/05/16 01:54:08;;;;;;;5.77;2.10;;;;;;;;;;4967272;28;20199;-80
2021/05/16 01:56:34;;;;;;;6.53;2.17;;;;;;;;;;4967223;28;20204;-79
2021/05/16 01:59:01;;;;;;;4.27;2.07;;;;;;;;;;4964801;28;20274;-79
2021/05/16 02:01:29;;;;;;;7.73;2.57;;;;;;;;;;4969894;28;20721;-79
2021/05/16 02:03:55;;;;;;;3.90;1.83;;;;;;;;;;4967841;28;20611;-79
2021/05/16 02:06:22;;;;;;;3.80;1.70;;;;;;;;;;4961572;28;20621;-79
2021/05/16 02:08:48;;;;;;;3.40;1.80;;;;;;;;;;4966285;28;20234;-79
2021/05/16 02:11:14;;;;;;;3.87;1.93;;;;;;;;;;4988833;28;20295;-79
2021/05/16 02:13:41;;;;;;;7.33;2.00;;;;;;;;;;4963974;28;20228;-79
2021/05/16 02:16:08;;;;;;;4.93;1.63;;;;;;;;;;4995939;28;20464;-79
2021/05/16 02:18:34;;;;;;;4.50;1.83;;;;;;;;;;4957338;28;20181;-79
2021/05/16 02:21:01;;;;;;;4.90;2.27;;;;;;;;;;4963674;28;20180;-79
2021/05/16 02:23:27;;;;;;;3.93;1.87;;;;;;;;;;4965842;28;20884;-79
2021/05/16 02:25:53;;;;;;;7.93;2.63;;;;;;;;;;4989030;28;20425;-79
2021/05/16 02:28:19;;;;;;;3.77;1.90;;;;;;;;;;4960384;28;20607;-79
2021/05/16 02:30:46;;;;;;;5.67;2.10;;;;;;;;;;4967126;28;20550;-79
2021/05/16 02:33:12;;;;;;;4.53;2.30;;;;;;;;;;4968882;28;20176;-79
2021/05/16 02:35:39;;;;;;;3.27;1.57;;;;;;;;;;4967162;28;20223;-79
2021/05/16 02:38:05;;;;;;;6.47;2.73;;;;;;;;;;4963939;28;20231;-79
2021/05/16 02:40:31;;;;;;;5.30;2.10;;;;;;;;;;4994944;28;20176;-79
2021/05/16 02:42:58;;;;;;;5.80;2.43;;;;;;;;;;4960646;28;20177;-79
2021/05/16 02:45:24;;;;;;;6.07;2.40;;;;;;;;;;4961121;28;20196;-79
2021/05/16 02:47:50;;;;;;;6.00;1.90;;;;;;;;;;4973009;28;20188;-79
2021/05/16 02:50:16;;;;;;;5.83;2.20;;;;;;;;;;4989843;28;20184;-79
2021/05/16 02:52:43;;;;;;;6.87;2.10;;;;;;;;;;4969872;28;20180;-79
2021/05/16 02:55:09;;;;;;;4.90;2.10;;;;;;;;;;4965213;28;20211;-79
2021/05/16 02:57:36;;;;;;;5.30;1.80;;;;;;;;;;4966165;28;20910;-79
2021/05/16 03:00:04;;;;;;;3.57;1.80;;;;;;;;;;4965390;28;20176;-79
2021/05/16 03:02:30;;;;;;;6.43;2.20;;;;;;;;;;4981761;28;20179;-79
2021/05/16 03:04:56;;;;;;;4.93;1.80;;;;;;;;;;4960672;28;20222;-79
2021/05/16 03:07:22;;;;;;;5.60;1.90;;;;;;;;;;4953459;28;20188;-79
2021/05/16 03:09:48;;;;;;;6.30;2.17;;;;;;;;;;4998187;28;20179;-79
2021/05/16 03:12:14;;;;;;;4.93;2.10;;;;;;;;;;4967978;28;20198;-79
2021/05/16 03:14:40;;;;;;;6.50;2.23;;;;;;;;;;4971103;28;20261;-79
2021/05/16 03:17:06;;;;;;;6.10;2.63;;;;;;;;;;4962343;28;20203;-79
2021/05/16 03:19:33;;;;;;;6.20;2.00;;;;;;;;;;4964910;28;20187;-79
2021/05/16 03:22:01;;;;;;;6.03;2.03;;;;;;;;;;4962168;28;20188;-79
2021/05/16 03:24:27;;;;;;;5.80;2.03;;;;;;;;;;4969458;28;20179;-79
2021/05/16 03:26:53;;;;;;;2.90;1.77;;;;;;;;;;4995181;28;20543;-79
2021/05/16 03:29:19;;;;;;;4.03;1.70;;;;;;;;;;4960901;28;20184;-79
2021/05/16 03:31:45;;;;;;;4.07;1.80;;;;;;;;;;4965544;28;20196;-79
2021/05/16 03:34:11;;;;;;;6.43;2.17;;;;;;;;;;4956824;28;20207;-79
2021/05/16 03:36:37;;;;;;;4.67;2.00;;;;;;;;;;4971361;28;20683;-79
2021/05/16 03:39:04;;;;;;;7.10;2.00;;;;;;;;;;4964871;28;20179;-79
2021/05/16 03:41:30;;;;;;;5.17;2.00;;;;;;;;;;4974198;28;20211;-79
2021/05/16 03:43:56;;;;;;;4.97;2.13;;;;;;;;;;4965457;28;20180;-79
2021/05/16 03:46:22;;;;;;;5.67;1.60;;;;;;;;;;4963133;28;20196;-79
2021/05/16 03:48:48;;;;;;;3.03;1.60;;;;;;;;;;4970556;28;20184;-79
2021/05/16 03:51:14;;;;;;;5.13;2.13;;;;;;;;;;4970472;28;20195;-78
2021/05/16 03:53:40;;;;;;;3.87;1.90;;;;;;;;;;4960418;28;20188;-79
2021/05/16 03:56:07;;;;;;;4.27;1.90;;;;;;;;;;4971969;28;20301;-79
2021/05/16 03:58:33;;;;;;;4.17;1.87;;;;;;;;;;4960639;28;20185;-80
2021/05/16 04:00:59;;;;;;;4.10;2.00;;;;;;;;;;4996888;28;20176;-79
2021/05/16 04:03:25;;;;;;;3.73;1.80;;;;;;;;;;4965306;28;20208;-79
2021/05/16 04:05:51;;;;;;;6.05;2.58;;;;;;;;;;4966241;28;20515;-79
2021/05/16 04:08:17;;;;;;;2.87;1.80;;;;;;;;;;4962037;28;20282;-79
2021/05/16 04:10:43;;;;;;;4.07;1.70;;;;;;;;;;4968005;28;20194;-79
2021/05/16 04:13:09;;;;;;;4.87;1.77;;;;;;;;;;4960849;28;20220;-79
2021/05/16 04:15:35;;;;;;;6.73;2.30;;;;;;;;;;4961507;28;20240;-79
2021/05/16 04:18:01;;;;;;;4.10;1.60;;;;;;;;;;4963070;28;20211;-79
2021/05/16 04:20:27;;;;;;;5.57;1.80;;;;;;;;;;4973405;28;20180;-79
2021/05/16 04:22:53;;;;;;;5.00;2.07;;;;;;;;;;4962404;28;20185;-79
2021/05/16 04:25:21;;;;;;;3.83;1.60;;;;;;;;;;4968725;28;20586;-79
2021/05/16 04:27:47;;;;;;;5.33;1.70;;;;;;;;;;4970096;28;20176;-79
2021/05/16 04:30:13;;;;;;;5.83;2.00;;;;;;;;;;4969597;28;20190;-79
2021/05/16 04:32:39;;;;;;;4.43;2.40;;;;;;;;;;4973575;28;20187;-79
2021/05/16 04:35:05;;;;;;;3.50;1.67;;;;;;;;;;4970446;28;20184;-79
2021/05/16 04:37:32;;;;;;;3.30;1.90;;;;;;;;;;4970909;28;20233;-79
2021/05/16 04:39:58;;;;;;;5.13;1.77;;;;;;;;;;4967728;28;20262;-80
2021/05/16 04:42:24;;;;;;;5.35;2.00;;;;;;;;;;4967279;28;20465;-79
2021/05/16 04:44:50;;;;;;;4.13;1.77;;;;;;;;;;4966176;28;20641;-79
2021/05/16 04:47:16;;;;;;;4.37;1.70;;;;;;;;;;4968785;28;20196;-81
2021/05/16 04:49:42;;;;;;;2.77;1.73;;;;;;;;;;4967342;28;20292;-79
2021/05/16 04:52:09;;;;;;;4.60;2.10;;;;;;;;;;4963632;28;20683;-79
2021/05/16 04:54:35;;;;;;;3.30;1.80;;;;;;;;;;4963120;28;20734;-80
2021/05/16 04:57:03;;;;;;;3.23;1.77;;;;;;;;;;4968326;28;20258;-80
2021/05/16 04:59:29;;;;;;;4.70;2.00;;;;;;;;;;4959497;28;20210;-80
2021/05/16 05:01:55;;;;;;;3.30;1.80;;;;;;;;;;4964957;28;20574;-79
2021/05/16 05:04:21;;;;;;;3.50;1.90;;;;;;;;;;4966953;28;20200;-79
2021/05/16 05:06:47;;;;;;;2.10;1.50;;;;;;;;;;4970402;28;20186;-79
2021/05/16 05:09:13;;;;;;;6.07;1.97;;;;;;;;;;4969062;28;20253;-79
2021/05/16 05:11:39;;;;;;;5.23;1.93;;;;;;;;;;4964603;28;20207;-79
2021/05/16 05:14:05;;;;;;;4.43;2.20;;;;;;;;;;4960501;28;20309;-79
2021/05/16 05:16:31;;;;;;;4.37;1.87;;;;;;;;;;4967003;28;20208;-80
2021/05/16 05:18:57;;;;;;;9.83;2.30;;;;;;;;;;4960724;28;20645;-79
2021/05/16 05:21:23;;;;;;;4.57;1.90;;;;;;;;;;4968953;28;20548;-79
2021/05/16 05:23:49;;;;;;;4.33;1.90;;;;;;;;;;4960221;28;20244;-80
2021/05/16 05:26:15;;;;;;;3.13;1.87;;;;;;;;;;4985452;28;20199;-79
2021/05/16 05:28:41;;;;;;;3.70;2.10;;;;;;;;;;4968648;28;20215;-79
2021/05/16 05:31:07;;;;;;;5.23;1.80;;;;;;;;;;4959888;28;20176;-80
2021/05/16 05:33:33;;;;;;;8.40;1.90;;;;;;;;;;4969501;28;20187;-79
2021/05/16 05:35:59;;;;;;;6.77;1.87;;;;;;;;;;4963268;28;20200;-79
2021/05/16 05:38:25;;;;;;;4.40;1.87;;;;;;;;;;4961195;28;20177;-79
2021/05/16 05:40:51;;;;;;;4.37;1.83;;;;;;;;;;4971157;28;20283;-79
2021/05/16 05:43:17;;;;;;;4.83;1.63;;;;;;;;;;4963747;28;20314;-79
2021/05/16 05:45:43;;;;;;;2.27;1.80;;;;;;;;;;4961738;28;21375;-79
2021/05/16 05:48:10;;;;;;;5.20;1.83;;;;;;;;;;4963675;28;20180;-79
2021/05/16 05:50:36;;;;;;;3.93;1.60;;;;;;;;;;4970005;28;20208;-79
2021/05/16 05:53:03;;;;;;;4.23;2.27;;;;;;;;;;4986991;28;20226;-79
2021/05/16 05:55:33;;;;;;;5.23;1.90;;;;;;;;;;4959225;28;20240;-79
2021/05/16 05:57:59;;;;;;;5.67;2.13;;;;;;;;;;4991376;28;20261;-79
2021/05/16 06:00:29;;;;;;;3.43;1.63;;;;;;;;;;4971294;28;20235;-79
2021/05/16 06:02:55;;;;;;;5.30;2.50;;;;;;;;;;4963167;28;20588;-79
2021/05/16 06:05:22;;;;;;;5.47;2.30;;;;;;;;;;4958997;28;20187;-80
2021/05/16 06:07:48;;;;;;;4.57;2.03;;;;;;;;;;4957480;28;20279;-80
2021/05/16 06:10:14;;;;;;;6.23;2.50;;;;;;;;;;4967469;28;20211;-80
2021/05/16 06:12:40;;;;;;;4.10;1.93;;;;;;;;;;4962946;28;20191;-79
2021/05/16 06:15:06;;;;;;;2.57;1.83;;;;;;;;;;4963001;28;20176;-79
2021/05/16 06:17:32;;;;;;;4.03;1.90;;;;;;;;;;4969089;28;20577;-82
2021/05/16 06:19:58;;;;;;;4.17;2.00;;;;;;;;;;4973768;28;20180;-82
2021/05/16 06:22:24;;;;;;;3.33;1.80;;;;;;;;;;4969398;28;20230;-82
2021/05/16 06:24:50;;;;;;;6.57;1.93;;;;;;;;;;4970328;28;20172;-83
2021/05/16 06:27:16;;;;;;;3.63;2.23;;;;;;;;;;4969798;28;20180;-82
2021/05/16 06:29:42;;;;;;;4.50;2.53;;;;;;;;;;4969037;28;20231;-80
2021/05/16 06:32:10;;;;;;;4.30;1.87;;;;;;;;;;4960387;28;20184;-80
2021/05/16 06:34:36;;;;;;;4.80;2.47;;;;;;;;;;4968458;28;20184;-80
2021/05/16 06:37:06;;;;;;;5.53;2.07;;;;;;;;;;4961905;28;20214;-81
2021/05/16 06:39:32;;;;;;;5.57;2.03;;;;;;;;;;4961931;28;20191;-81
2021/05/16 06:41:59;;;;;;;5.10;2.30;;;;;;;;;;4961266;28;20173;-81
2021/05/16 06:44:25;;;;;;;4.07;1.83;;;;;;;;;;4966691;28;20187;-81
2021/05/16 06:46:52;;;;;;;2.87;1.70;;;;;;;;;;4969227;28;20574;-82
2021/05/16 06:49:18;;;;;;;5.30;2.20;;;;;;;;;;4984874;28;20176;-82
2021/05/16 06:51:44;;;;;;;4.70;2.20;;;;;;;;;;4980096;28;20342;-81
2021/05/16 06:54:12;;;;;;;3.33;1.83;;;;;;;;;;4970925;28;20325;-82
2021/05/16 06:56:38;;;;;;;4.53;1.97;;;;;;;;;;4962983;28;20265;-82
2021/05/16 06:59:04;;;;;;;5.40;2.10;;;;;;;;;;4961324;28;20275;-83
2021/05/16 07:01:31;;;;;;;4.90;2.27;;;;;;;;;;4993001;28;20578;-81
2021/05/16 07:03:57;;;;;;;6.13;2.73;;;;;;;;;;4970856;28;20623;-80
2021/05/16 07:06:23;;;;;;;4.33;2.00;;;;;;;;;;4970666;28;20180;-80
2021/05/16 07:08:50;;;;;;;7.93;2.63;;;;;;;;;;4971288;28;20246;-80
2021/05/16 07:11:16;;;;;;;5.17;2.27;;;;;;;;;;4969011;28;20203;-80
2021/05/16 07:13:42;;;;;;;6.10;1.90;;;;;;;;;;4956507;28;20223;-80
2021/05/16 07:16:08;;;;;;;4.60;1.93;;;;;;;;;;4984908;28;20211;-81
2021/05/16 07:18:34;;;;;;;5.17;2.17;;;;;;;;;;4963277;28;20180;-81
2021/05/16 07:21:00;;;;;;;5.33;2.17;;;;;;;;;;5016565;28;20175;-81
2021/05/16 07:23:26;;;;;;;6.33;3.17;;;;;;;;;;4969133;28;20196;-80
2021/05/16 07:25:53;;;;;;;6.83;2.00;;;;;;;;;;5001805;28;20187;-80
2021/05/16 07:28:19;;;;;;;3.70;2.03;;;;;;;;;;4955410;28;20193;-79
2021/05/16 07:30:45;;;;;;;6.33;2.47;;;;;;;;;;4964785;28;20207;-81
2021/05/16 07:33:11;;;;;;;9.33;3.30;;;;;;;;;;4953086;28;20659;-80
2021/05/16 07:35:37;;;;;;;11.87;3.90;;;;;;;;;;4984916;28;20349;-80
2021/05/16 07:38:03;;;;;;;7.23;3.03;;;;;;;;;;4969831;28;20180;-80
2021/05/16 07:40:30;;;;;;;12.07;3.30;;;;;;;;;;4988324;28;20211;-77
2021/05/16 07:42:56;;;;;;;11.77;3.33;;;;;;;;;;4962042;28;20215;-76
2021/05/16 07:45:23;;;;;;;8.37;2.97;;;;;;;;;;4971267;28;20295;-76
2021/05/16 07:47:49;;;;;;;10.27;3.43;;;;;;;;;;4994594;28;20172;-76
2021/05/16 07:50:15;;;;;;;11.23;3.87;;;;;;;;;;4985938;28;20208;-81
2021/05/16 07:52:41;;;;;;;13.10;3.60;;;;;;;;;;4965726;28;20185;-80
2021/05/16 07:55:08;;;;;;;11.07;3.53;;;;;;;;;;4982119;28;20249;-80
2021/05/16 07:57:34;;;;;;;9.20;3.30;;;;;;;;;;4961158;28;20213;-80
2021/05/16 08:00:01;;;;;;;14.93;4.00;;;;;;;;;;4966804;28;20635;-80
2021/05/16 08:02:27;;;;;;;9.47;3.30;;;;;;;;;;4961182;28;20176;-80
2021/05/16 08:04:53;;;;;;;8.83;3.80;;;;;;;;;;4963186;28;20172;-81
2021/05/16 08:07:19;;;;;;;12.83;3.37;;;;;;;;;;4964304;28;20190;-80
2021/05/16 08:09:45;;;;;;;23.10;5.23;;;;;;;;;;4984025;28;20333;-80
2021/05/16 08:12:11;;;;;;;16.17;4.60;;;;;;;;;;4995661;28;20346;-80
2021/05/16 08:14:37;;;;;;;10.47;3.73;;;;;;;;;;4981986;28;20250;-78
2021/05/16 08:17:04;;;;;;;10.10;3.30;;;;;;;;;;4968792;28;20705;-78
2021/05/16 08:19:30;;;;;;;15.23;4.03;;;;;;;;;;4960017;28;20188;-77
2021/05/16 08:21:57;;;;;;;11.80;3.27;;;;;;;;;;4968983;28;20245;-80
2021/05/16 08:24:23;;;;;;;11.13;3.53;;;;;;;;;;5013311;28;20173;-81
2021/05/16 08:26:49;;;;;;;9.87;3.30;;;;;;;;;;5006796;28;20184;-79
2021/05/16 08:29:16;;;;;;;8.50;3.00;;;;;;;;;;4967550;28;20188;-83
2021/05/16 08:31:42;;;;;;;9.57;3.47;;;;;;;;;;4970864;28;20238;-81
2021/05/16 08:34:08;;;;;;;10.10;3.93;;;;;;;;;;4971951;28;20210;-80
2021/05/16 08:36:38;;;;;;;9.03;3.20;;;;;;;;;;4956327;28;20208;-81
2021/05/16 08:39:06;;;;;;;5.77;3.40;;;;;;;;;;4984578;28;20299;-82
2021/05/16 08:41:36;;;;;;;7.07;2.90;;;;;;;;;;4961526;28;20192;-82
2021/05/16 08:44:03;;;;;;;9.17;3.13;;;;;;;;;;4962389;28;20244;-82
2021/05/16 08:46:29;;;;;;;7.37;3.57;;;;;;;;;;4967041;28;20204;-82
2021/05/16 08:48:56;;;;;;;6.30;2.97;;;;;;;;;;4970962;28;20267;-83
2021/05/16 08:51:23;;;;;;;7.90;2.30;;;;;;;;;;4973045;28;20624;-76
2021/05/16 08:53:49;;;;;;;6.00;2.30;;;;;;;;;;4959082;28;20635;-75
2021/05/16 08:56:15;;;;;;;6.87;2.53;;;;;;;;;;4965052;28;20268;-75
2021/05/16 08:58:41;;;;;;;6.37;2.83;;;;;;;;;;4956893;28;21084;-76
2021/05/16 09:01:24;;;;;;;13.33;2.53;;;;;;;;;;4965218;28;20184;-77
2021/05/16 09:03:50;;;;;;;6.63;2.57;;;;;;;;;;4964479;28;20191;-76
2021/05/16 09:06:17;;;;;;;7.97;3.30;;;;;;;;;;4957122;28;20211;-75
2021/05/16 09:08:43;;;;;;;6.70;2.53;;;;;;;;;;4967998;28;20184;-75
2021/05/16 09:11:10;;;;;;;5.87;2.70;;;;;;;;;;4966953;28;20511;-75
2021/05/16 09:13:39;;;;;;;6.57;3.13;;;;;;;;;;4963216;28;20274;-76
2021/05/16 09:16:09;;;;;;;10.07;3.20;;;;;;;;;;4997729;28;20428;-75
2021/05/16 09:18:35;;;;;;;9.57;2.97;;;;;;;;;;4965182;28;20207;-75
2021/05/16 09:21:23;;;;;;;5.97;2.67;;;;;;;;;;4965204;28;20247;-80
2021/05/16 09:23:50;;;;;;;9.67;3.00;;;;;;;;;;4989151;28;20545;-75
2021/05/16 09:26:16;;;;;;;9.27;2.83;;;;;;;;;;4978593;28;20183;-75
2021/05/16 09:28:42;;;;;;;8.97;2.77;;;;;;;;;;4966813;28;20638;-75
2021/05/16 09:31:08;;;;;;;6.93;2.33;;;;;;;;;;4967962;28;20200;-77
2021/05/16 09:33:35;;;;;;;7.03;2.83;;;;;;;;;;4966374;28;20219;-80
2021/05/16 09:36:05;;;;;;;9.87;3.90;;;;;;;;;;4956390;28;20583;-78
2021/05/16 09:38:32;;;;;;;12.77;3.03;;;;;;;;;;5000207;28;20587;-79
2021/05/16 09:40:59;;;;;;;10.40;2.43;;;;;;;;;;4960812;28;20273;-79
2021/05/16 09:43:26;;;;;;;8.83;2.63;;;;;;;;;;5018008;28;20184;-78
2021/05/16 09:46:05;;;;;;;6.37;2.50;;;;;;;;;;4976312;28;20298;-78
2021/05/16 09:48:42;;;;;;;5.90;2.37;;;;;;;;;;4958022;28;20185;-79
2021/05/16 09:51:15;;;;;;;7.37;2.53;;;;;;;;;;4965870;28;20245;-79
2021/05/16 09:53:48;;;;;;;6.87;2.53;;;;;;;;;;4968789;28;20188;-79
2021/05/16 09:56:20;;;;;;;5.07;2.83;;;;;;;;;;4981900;28;20196;-82
2021/05/16 09:58:46;;;;;;;7.00;2.27;;;;;;;;;;4965515;28;20584;-81
2021/05/16 10:01:16;;;;;;;5.57;2.37;;;;;;;;;;4979981;28;20188;-81
2021/05/16 10:03:42;;;;;;;7.20;2.10;;;;;;;;;;4986610;28;20237;-80
2021/05/16 10:06:09;;;;;;;6.50;2.37;;;;;;;;;;4967955;28;20625;-81
2021/05/16 10:08:36;;;;;;;7.43;2.67;;;;;;;;;;4997457;28;20631;-81
2021/05/16 10:11:03;;;;;;;6.73;2.43;;;;;;;;;;4967383;28;20712;-81
2021/05/16 10:13:31;;;;;;;8.27;2.90;;;;;;;;;;4963779;28;20212;-77
2021/05/16 10:15:58;;;;;;;9.40;2.87;;;;;;;;;;4967800;28;20406;-76
2021/05/16 10:18:26;;;;;;;6.37;3.10;;;;;;;;;;4983751;28;20218;-76
2021/05/16 10:20:52;;;;;;;4.07;1.80;;;;;;;;;;4966497;28;20262;-76
2021/05/16 10:23:45;;;;;;;7.00;2.50;;;;;;;;;;4974797;28;20180;-80
2021/05/16 10:26:24;;;;;;;6.13;2.90;;;;;;;;;;4987782;28;20529;-80
2021/05/16 10:29:01;;;;;;;13.27;2.60;;;;;;;;;;4973672;28;20258;-80
2021/05/16 10:31:39;;;;;;;7.47;2.77;;;;;;;;;;4982282;28;20219;-80
2021/05/16 10:34:24;;;;;;;4.17;1.70;;;;;;;;;;4965052;28;20184;-80
2021/05/16 10:36:50;;;;;;;6.00;1.80;;;;;;;;;;4969496;28;20289;-81
2021/05/16 10:39:37;;;;;;;2.53;1.50;;;;;;;;;;4989554;28;20188;-80
2021/05/16 10:42:12;;;;;;;3.27;1.23;;;;;;;;;;4972634;28;20237;-80
2021/05/16 10:44:40;;;;;;;1.73;1.20;;;;;;;;;;4990835;28;20460;-80
2021/05/16 10:47:07;;;;;;;5.47;1.87;;;;;;;;;;5027923;28;20267;-79
2021/05/16 10:49:33;;;;;;;2.37;1.30;;;;;;;;;;4963363;28;20615;-82
2021/05/16 10:52:19;;;;;;;5.23;1.50;;;;;;;;;;4965200;28;20187;-82
2021/05/16 10:54:48;;;;;;;2.47;1.40;;;;;;;;;;4988774;28;20515;-79
2021/05/16 10:57:23;;;;;;;3.57;1.50;;;;;;;;;;4966263;28;20228;-79
2021/05/16 10:59:49;;;;;;;5.37;1.50;;;;;;;;;;4980400;28;20191;-80
2021/05/16 11:02:34;;;;;;;2.10;1.67;;;;;;;;;;4985739;28;20200;-76
2021/05/16 11:05:00;;;;;;;2.73;1.50;;;;;;;;;;4966612;28;20188;-82
2021/05/16 11:07:36;;;;;;;4.30;1.60;;;;;;;;;;4985384;28;20191;-82
2021/05/16 11:10:21;;;;;;;4.20;1.73;;;;;;;;;;4971444;28;20191;-82
2021/05/16 11:12:47;;;;;;;2.67;1.33;;;;;;;;;;4980478;28;20192;-80
2021/05/16 11:15:23;;;;;;;4.00;1.80;;;;;;;;;;4979636;28;20184;-81
2021/05/16 11:17:49;;;;;;;4.57;1.83;;;;;;;;;;4977206;28;20469;-81
2021/05/16 11:20:15;;;;;;;2.63;1.70;;;;;;;;;;4971239;28;20595;-82
2021/05/16 11:22:42;;;;;;;4.80;2.00;;;;;;;;;;4972261;28;20236;-82
2021/05/16 11:25:09;;;;;;;3.53;1.60;;;;;;;;;;5018847;28;20176;-81
2021/05/16 11:27:36;;;;;;;5.53;1.60;;;;;;;;;;4989143;28;20184;-82
2021/05/16 11:30:05;;;;;;;5.70;1.80;;;;;;;;;;4997969;28;20192;-85
2021/05/16 11:32:32;;;;;;;3.33;1.70;;;;;;;;;;4984792;28;20184;-77
2021/05/16 11:35:01;;;;;;;3.60;2.10;;;;;;;;;;5009068;28;20222;-83
2021/05/16 11:37:27;;;;;;;5.53;1.77;;;;;;;;;;4968769;28;20204;-82
2021/05/16 11:39:53;;;;;;;4.13;2.37;;;;;;;;;;4983475;28;20316;-82
2021/05/16 11:42:36;;;;;;;3.87;2.07;;;;;;;;;;4975802;28;20275;-81
2021/05/16 11:45:03;;;;;;;5.50;2.13;;;;;;;;;;4970871;28;20200;-81
2021/05/16 11:47:35;;;;;;;2.83;1.80;;;;;;;;;;4997222;28;20191;-82
2021/05/16 11:50:01;;;;;;;5.33;1.97;;;;;;;;;;5000143;28;20180;-82
2021/05/16 11:52:27;;;;;;;3.87;2.57;;;;;;;;;;4972686;28;20238;-82
2021/05/16 11:54:53;;;;;;;3.37;1.90;;;;;;;;;;4975425;28;20738;-81
2021/05/16 11:57:21;;;;;;;4.87;2.10;;;;;;;;;;4970819;28;20222;-81
2021/05/16 11:59:47;;;;;;;4.90;2.10;;;;;;;;;;4972476;28;20180;-82
2021/05/16 12:02:13;;;;;;;4.07;2.00;;;;;;;;;;4965886;28;20535;-81
2021/05/16 12:04:39;;;;;;;3.33;1.60;;;;;;;;;;4975120;28;20646;-82
2021/05/16 12:07:06;;;;;;;4.13;1.90;;;;;;;;;;4969130;28;20191;-77
2021/05/16 12:09:37;;;;;;;2.60;1.70;;;;;;;;;;4964122;28;20524;-76
2021/05/16 12:12:04;;;;;;;4.40;1.97;;;;;;;;;;4986203;28;20177;-77
2021/05/16 12:14:30;;;;;;;5.77;2.20;;;;;;;;;;4976399;28;20230;-78
2021/05/16 12:17:00;;;;;;;3.97;1.73;;;;;;;;;;5015429;28;20211;-77
2021/05/16 12:19:28;;;;;;;3.70;2.03;;;;;;;;;;4978923;28;20271;-77
2021/05/16 12:21:55;;;;;;;2.80;2.07;;;;;;;;;;5009830;28;20265;-80
2021/05/16 12:24:21;;;;;;;3.27;1.73;;;;;;;;;;4974288;28;20184;-82
2021/05/16 12:26:48;;;;;;;5.90;2.47;;;;;;;;;;4967383;28;20192;-82
2021/05/16 12:29:15;;;;;;;4.87;1.90;;;;;;;;;;4970756;28;20600;-76
2021/05/16 12:31:41;;;;;;;2.63;1.50;;;;;;;;;;4981440;28;20194;-75
2021/05/16 12:34:08;;;;;;;2.63;1.60;;;;;;;;;;4971525;28;20466;-83
2021/05/16 12:36:45;;;;;;;7.57;2.30;;;;;;;;;;4994910;28;20223;-82
2021/05/16 12:39:11;;;;;;;5.63;1.90;;;;;;;;;;4992720;28;20236;-82
2021/05/16 12:41:37;;;;;;;5.00;1.73;;;;;;;;;;4990421;28;20183;-84
2021/05/16 12:44:07;;;;;;;4.77;1.70;;;;;;;;;;4978929;28;20492;-82
2021/05/16 12:46:37;;;;;;;8.40;2.40;;;;;;;;;;4985055;28;20265;-83
2021/05/16 12:49:03;;;;;;;4.80;1.70;;;;;;;;;;4995509;28;20195;-77
2021/05/16 12:51:29;;;;;;;3.77;1.37;;;;;;;;;;4966331;28;20184;-77
2021/05/16 12:54:14;;;;;;;4.00;1.60;;;;;;;;;;4973675;28;20241;-78
2021/05/16 12:56:44;;;;;;;4.33;1.60;;;;;;;;;;4967657;28;20563;-76
2021/05/16 12:59:11;;;;;;;1.80;1.30;;;;;;;;;;5003590;28;20275;-76
2021/05/16 13:01:39;;;;;;;5.13;1.67;;;;;;;;;;4984608;28;20194;-76
2021/05/16 13:04:07;;;;;;;2.47;1.40;;;;;;;;;;5012315;28;20318;-77
2021/05/16 13:06:34;;;;;;;2.07;1.30;;;;;;;;;;4982937;28;20585;-77
2021/05/16 13:09:01;;;;;;;2.83;1.27;;;;;;;;;;4984506;28;20197;-77
2021/05/16 13:11:27;;;;;;;3.60;1.60;;;;;;;;;;4966490;28;20598;-77
2021/05/16 13:14:00;;;;;;;3.70;1.40;;;;;;;;;;4964818;28;20226;-77
2021/05/16 13:16:26;;;;;;;4.93;1.80;;;;;;;;;;4976417;28;20284;-80
2021/05/16 13:18:57;;;;;;;6.73;2.03;;;;;;;;;;4980622;28;20215;-76
2021/05/16 13:21:24;;;;;;;2.07;1.63;;;;;;;;;;4965992;28;20272;-77
2021/05/16 13:23:56;;;;;;;3.17;1.27;;;;;;;;;;5002050;28;20180;-78
2021/05/16 13:26:41;;;;;;;3.87;1.63;;;;;;;;;;4971931;28;20236;-78
2021/05/16 13:29:09;;;;;;;2.90;1.53;;;;;;;;;;4971972;28;20192;-78
2021/05/16 13:31:35;;;;;;;2.37;1.17;;;;;;;;;;4968539;28;20188;-78
2021/05/16 13:34:01;;;;;;;2.90;1.30;;;;;;;;;;4960709;28;20273;-78
2021/05/16 13:36:27;;;;;;;5.30;1.60;;;;;;;;;;5002137;28;20202;-77
2021/05/16 13:38:53;;;;;;;2.93;1.40;;;;;;;;;;4989546;28;20193;-77
2021/05/16 13:41:20;;;;;;;5.03;1.70;;;;;;;;;;4975758;28;20854;-79
2021/05/16 13:43:46;;;;;;;6.07;2.07;;;;;;;;;;5006899;28;20189;-76
2021/05/16 13:46:12;;;;;;;6.00;1.93;;;;;;;;;;4964961;28;20214;-75
2021/05/16 13:48:38;;;;;;;3.73;1.80;;;;;;;;;;4993923;28;20667;-75
2021/05/16 13:51:04;;;;;;;5.23;1.80;;;;;;;;;;5009548;28;20613;-75
2021/05/16 13:53:30;;;;;;;2.83;1.40;;;;;;;;;;4992990;28;20188;-78
2021/05/16 13:55:57;;;;;;;3.57;1.63;;;;;;;;;;4969002;28;20212;-78
2021/05/16 13:58:23;;;;;;;1.87;1.30;;;;;;;;;;5019239;28;20190;-78
2021/05/16 14:00:49;;;;;;;5.53;1.80;;;;;;;;;;4967515;28;20189;-77
2021/05/16 14:03:15;;;;;;;3.13;1.50;;;;;;;;;;4967924;28;20799;-79
2021/05/16 14:05:41;;;;;;;2.80;1.30;;;;;;;;;;4964145;28;20209;-78
2021/05/16 14:08:07;;;;;;;5.27;1.93;;;;;;;;;;4964685;28;20213;-78
2021/05/16 14:10:33;;;;;;;2.63;1.57;;;;;;;;;;4990526;28;20212;-78
2021/05/16 14:12:59;;;;;;;5.40;2.07;;;;;;;;;;4977613;28;20238;-78
2021/05/16 14:15:25;;;;;;;6.43;1.93;;;;;;;;;;4968119;28;20184;-81
2021/05/16 14:17:52;;;;;;;4.10;2.03;;;;;;;;;;4966699;28;20564;-79
2021/05/16 14:20:19;;;;;;;4.20;1.20;;;;;;;;;;5008266;28;20310;-78
2021/05/16 14:22:45;;;;;;;3.47;1.30;;;;;;;;;;4979886;28;20181;-78
2021/05/16 14:25:11;;;;;;;2.50;1.07;;;;;;;;;;4969886;28;20270;-79
2021/05/16 14:27:37;;;;;;;1.77;0.97;;;;;;;;;;4997692;28;20565;-80
2021/05/16 14:30:05;;;;;;;2.60;1.47;;;;;;;;;;4990250;28;20194;-79
2021/05/16 14:32:31;;;;;;;2.53;1.20;;;;;;;;;;4981824;28;20191;-78
2021/05/16 14:34:58;;;;;;;4.63;1.57;;;;;;;;;;4981939;28;20188;-79
2021/05/16 14:37:24;;;;;;;3.07;1.10;;;;;;;;;;4991791;28;20252;-78
2021/05/16 14:39:50;;;;;;;3.67;1.60;;;;;;;;;;4984438;28;20184;-77
2021/05/16 14:42:16;;;;;;;3.17;1.40;;;;;;;;;;4993255;28;20196;-78
2021/05/16 14:44:42;;;;;;;2.90;1.40;;;;;;;;;;4969015;28;20630;-78